sensor_id;sensor_type;location;lat;lon;timestamp;pressure;altitude;pressure_sealevel;temperature;humidity
46714;BME280;32445;51.376;10.874;2022-12-07T00:01:33;99256.94;;;3.61;61.23
46714;BME280;32445;51.376;10.874;2022-12-07T00:04:33;99250.09;;;3.51;61.57
46714;BME280;32445;51.376;10.874;2022-12-07T00:07:34;99245.81;;;3.47;62.28
46714;BME280;32445;51.376;10.874;2022-12-07T00:10:34;99246.69;;;3.40;62.16
46714;BME280;32445;51.376;10.874;2022-12-07T00:13:35;99250.97;;;3.35;62.54
46714;BME280;32445;51.376;10.874;2022-12-07T00:16:36;99240.69;;;3.38;62.65
46714;BME280;32445;51.376;10.874;2022-12-07T00:19:38;99245.84;;;3.44;61.87
46714;BME280;32445;51.376;10.874;2022-12-07T00:22:38;99242.38;;;3.48;61.78
46714;BME280;32445;51.376;10.874;2022-12-07T00:25:39;99243.25;;;3.50;62.03
46714;BME280;32445;51.376;10.874;2022-12-07T00:28:39;99237.28;;;3.53;62.09
46714;BME280;32445;51.376;10.874;2022-12-07T00:31:39;99240.66;;;3.55;62.00
46714;BME280;32445;51.376;10.874;2022-12-07T00:34:40;99231.25;;;3.54;61.46
46714;BME280;32445;51.376;10.874;2022-12-07T00:37:40;99229.56;;;3.54;61.76
46714;BME280;32445;51.376;10.874;2022-12-07T00:40:40;99226.13;;;3.54;62.15
46714;BME280;32445;51.376;10.874;2022-12-07T00:43:42;99228.69;;;3.52;61.93
46714;BME280;32445;51.376;10.874;2022-12-07T00:46:43;99221.00;;;3.52;61.93
46714;BME280;32445;51.376;10.874;2022-12-07T00:49:45;99218.44;;;3.52;61.64
46714;BME280;32445;51.376;10.874;2022-12-07T00:52:48;99222.72;;;3.53;61.64
46714;BME280;32445;51.376;10.874;2022-12-07T00:55:48;99221.88;;;3.53;61.99
46714;BME280;32445;51.376;10.874;2022-12-07T00:58:53;99213.31;;;3.49;62.29
46714;BME280;32445;51.376;10.874;2022-12-07T01:01:54;99209.91;;;3.49;62.04
46714;BME280;32445;51.376;10.874;2022-12-07T01:04:54;99210.75;;;3.47;62.40
46714;BME280;32445;51.376;10.874;2022-12-07T01:07:54;99203.88;;;3.48;62.25
46714;BME280;32445;51.376;10.874;2022-12-07T01:11:00;99194.50;;;3.47;62.16
46714;BME280;32445;51.376;10.874;2022-12-07T01:14:01;99201.34;;;3.45;62.45
46714;BME280;32445;51.376;10.874;2022-12-07T01:17:02;99193.63;;;3.43;62.88
46714;BME280;32445;51.376;10.874;2022-12-07T01:20:02;99191.94;;;3.45;62.86
46714;BME280;32445;51.376;10.874;2022-12-07T01:23:03;99181.69;;;3.45;62.59
46714;BME280;32445;51.376;10.874;2022-12-07T01:26:06;99191.09;;;3.42;62.59
46714;BME280;32445;51.376;10.874;2022-12-07T01:29:07;99189.34;;;3.42;62.62
46714;BME280;32445;51.376;10.874;2022-12-07T01:32:07;99181.66;;;3.41;63.23
46714;BME280;32445;51.376;10.874;2022-12-07T01:35:08;99181.66;;;3.42;63.01
46714;BME280;32445;51.376;10.874;2022-12-07T01:38:08;99179.97;;;3.40;63.75
46714;BME280;32445;51.376;10.874;2022-12-07T01:41:09;99183.41;;;3.39;63.30
46714;BME280;32445;51.376;10.874;2022-12-07T01:47:19;99179.09;;;3.41;64.16
46714;BME280;32445;51.376;10.874;2022-12-07T01:50:20;99177.41;;;3.43;63.72
46714;BME280;32445;51.376;10.874;2022-12-07T01:53:24;99168.84;;;3.45;63.27
46714;BME280;32445;51.376;10.874;2022-12-07T01:56:28;99165.41;;;3.46;63.26
46714;BME280;32445;51.376;10.874;2022-12-07T01:59:29;99173.97;;;3.50;63.36
46714;BME280;32445;51.376;10.874;2022-12-07T02:02:35;99170.56;;;3.50;62.84
46714;BME280;32445;51.376;10.874;2022-12-07T02:05:38;99169.66;;;3.52;63.24
46714;BME280;32445;51.376;10.874;2022-12-07T02:08:41;99171.38;;;3.52;63.09
46714;BME280;32445;51.376;10.874;2022-12-07T02:11:44;99165.41;;;3.48;63.89
46714;BME280;32445;51.376;10.874;2022-12-07T02:14:45;99161.16;;;3.44;64.56
46714;BME280;32445;51.376;10.874;2022-12-07T02:17:55;99150.03;;;3.43;64.94
46714;BME280;32445;51.376;10.874;2022-12-07T02:21:07;99154.28;;;3.46;64.66
46714;BME280;32445;51.376;10.874;2022-12-07T02:30:44;99144.06;;;3.41;64.84
46714;BME280;32445;51.376;10.874;2022-12-07T02:33:52;99138.03;;;3.42;64.99
46714;BME280;32445;51.376;10.874;2022-12-07T02:36:57;99134.63;;;3.43;65.20
46714;BME280;32445;51.376;10.874;2022-12-07T02:43:27;99135.47;;;3.41;64.80
46714;BME280;32445;51.376;10.874;2022-12-07T02:46:33;99122.66;;;3.44;65.27
46714;BME280;32445;51.376;10.874;2022-12-07T02:49:37;99116.66;;;3.46;64.65
46714;BME280;32445;51.376;10.874;2022-12-07T02:52:38;99114.97;;;3.47;64.94
46714;BME280;32445;51.376;10.874;2022-12-07T02:55:40;99123.50;;;3.47;64.59
46714;BME280;32445;51.376;10.874;2022-12-07T03:08:53;99130.31;;;3.53;64.60
46714;BME280;32445;51.376;10.874;2022-12-07T03:12:15;99124.34;;;3.51;64.44
46714;BME280;32445;51.376;10.874;2022-12-07T03:15:24;99120.91;;;3.52;65.23
46714;BME280;32445;51.376;10.874;2022-12-07T03:18:30;99114.94;;;3.52;64.65
46714;BME280;32445;51.376;10.874;2022-12-07T03:21:37;99114.94;;;3.52;65.16
46714;BME280;32445;51.376;10.874;2022-12-07T03:24:53;99118.34;;;3.54;64.70
46714;BME280;32445;51.376;10.874;2022-12-07T03:28:01;99103.78;;;3.57;64.78
46714;BME280;32445;51.376;10.874;2022-12-07T03:31:11;99089.22;;;3.61;64.79
46714;BME280;32445;51.376;10.874;2022-12-07T03:34:20;99096.06;;;3.63;64.87
46714;BME280;32445;51.376;10.874;2022-12-07T03:40:58;99096.88;;;3.72;64.23
46714;BME280;32445;51.376;10.874;2022-12-07T03:44:00;99099.47;;;3.69;64.38
46714;BME280;32445;51.376;10.874;2022-12-07T03:47:15;99087.53;;;3.60;65.11
46714;BME280;32445;51.376;10.874;2022-12-07T03:50:21;99090.94;;;3.62;65.25
46714;BME280;32445;51.376;10.874;2022-12-07T03:53:37;99093.50;;;3.60;64.70
46714;BME280;32445;51.376;10.874;2022-12-07T03:56:40;99083.22;;;3.65;65.01
46714;BME280;32445;51.376;10.874;2022-12-07T03:59:45;99090.06;;;3.64;64.91
46714;BME280;32445;51.376;10.874;2022-12-07T04:02:46;99077.25;;;3.63;65.22
46714;BME280;32445;51.376;10.874;2022-12-07T04:05:47;99081.50;;;3.69;64.64
46714;BME280;32445;51.376;10.874;2022-12-07T04:08:47;99074.59;;;3.74;65.05
46714;BME280;32445;51.376;10.874;2022-12-07T04:11:48;99068.63;;;3.73;65.16
46714;BME280;32445;51.376;10.874;2022-12-07T04:14:48;99073.75;;;3.75;64.93
46714;BME280;32445;51.376;10.874;2022-12-07T04:17:49;99078.00;;;3.82;64.82
46714;BME280;32445;51.376;10.874;2022-12-07T04:20:49;99075.41;;;3.84;64.72
46714;BME280;32445;51.376;10.874;2022-12-07T04:23:50;99072.84;;;3.85;65.21
46714;BME280;32445;51.376;10.874;2022-12-07T04:26:50;99071.94;;;3.91;64.20
46714;BME280;32445;51.376;10.874;2022-12-07T04:29:50;99065.94;;;3.93;64.65
46714;BME280;32445;51.376;10.874;2022-12-07T04:32:51;99062.53;;;3.93;64.63
46714;BME280;32445;51.376;10.874;2022-12-07T04:35:53;99065.94;;;3.96;64.15
46714;BME280;32445;51.376;10.874;2022-12-07T04:38:54;99066.78;;;3.98;64.39
46714;BME280;32445;51.376;10.874;2022-12-07T04:41:55;99068.44;;;4.01;64.02
46714;BME280;32445;51.376;10.874;2022-12-07T04:44:55;99060.78;;;4.03;64.28
46714;BME280;32445;51.376;10.874;2022-12-07T04:47:56;99066.75;;;4.03;64.44
46714;BME280;32445;51.376;10.874;2022-12-07T04:50:56;99068.47;;;4.03;64.19
46714;BME280;32445;51.376;10.874;2022-12-07T04:53:57;99065.91;;;3.98;64.78
46714;BME280;32445;51.376;10.874;2022-12-07T04:56:58;99071.94;;;3.94;65.00
46714;BME280;32445;51.376;10.874;2022-12-07T04:59:58;99068.50;;;3.95;65.00
46714;BME280;32445;51.376;10.874;2022-12-07T05:02:58;99073.63;;;3.98;64.92
46714;BME280;32445;51.376;10.874;2022-12-07T05:05:59;99067.63;;;4.01;65.15
46714;BME280;32445;51.376;10.874;2022-12-07T05:09:00;99070.22;;;3.96;65.26
46714;BME280;32445;51.376;10.874;2022-12-07T05:12:00;99071.06;;;3.95;65.42
46714;BME280;32445;51.376;10.874;2022-12-07T05:15:00;99064.22;;;3.97;65.56
46714;BME280;32445;51.376;10.874;2022-12-07T05:18:01;99066.78;;;3.97;65.69
46714;BME280;32445;51.376;10.874;2022-12-07T05:21:03;99067.63;;;3.97;65.43
46714;BME280;32445;51.376;10.874;2022-12-07T05:24:04;99065.91;;;3.98;65.98
46714;BME280;32445;51.376;10.874;2022-12-07T05:27:05;99066.78;;;3.97;65.87
46714;BME280;32445;51.376;10.874;2022-12-07T05:30:05;99070.19;;;3.99;65.70
46714;BME280;32445;51.376;10.874;2022-12-07T05:33:06;99075.31;;;4.02;65.76
46714;BME280;32445;51.376;10.874;2022-12-07T05:36:06;99067.63;;;4.01;65.75
46714;BME280;32445;51.376;10.874;2022-12-07T05:39:07;99067.63;;;4.01;66.03
46714;BME280;32445;51.376;10.874;2022-12-07T05:42:10;99073.59;;;4.01;66.04
46714;BME280;32445;51.376;10.874;2022-12-07T05:45:13;99064.22;;;3.98;66.04
46714;BME280;32445;51.376;10.874;2022-12-07T05:48:14;99065.91;;;3.98;66.11
46714;BME280;32445;51.376;10.874;2022-12-07T05:51:14;99061.66;;;3.95;66.42
46714;BME280;32445;51.376;10.874;2022-12-07T05:54:14;99064.25;;;3.95;66.45
46714;BME280;32445;51.376;10.874;2022-12-07T05:57:15;99062.50;;;3.96;66.37
46714;BME280;32445;51.376;10.874;2022-12-07T06:00:15;99059.09;;;3.95;66.39
46714;BME280;32445;51.376;10.874;2022-12-07T06:03:16;99060.78;;;3.96;65.80
46714;BME280;32445;51.376;10.874;2022-12-07T06:06:16;99053.97;;;3.95;66.22
46714;BME280;32445;51.376;10.874;2022-12-07T06:09:17;99060.81;;;3.92;66.32
46714;BME280;32445;51.376;10.874;2022-12-07T06:12:18;99065.09;;;3.94;66.13
46714;BME280;32445;51.376;10.874;2022-12-07T06:15:36;99062.53;;;3.93;65.78
46714;BME280;32445;51.376;10.874;2022-12-07T06:18:37;99063.38;;;3.93;65.84
46714;BME280;32445;51.376;10.874;2022-12-07T06:21:37;99063.34;;;3.96;66.05
46714;BME280;32445;51.376;10.874;2022-12-07T06:24:38;99065.91;;;3.98;66.06
46714;BME280;32445;51.376;10.874;2022-12-07T06:27:38;99063.34;;;3.96;65.95
46714;BME280;32445;51.376;10.874;2022-12-07T06:30:38;99061.66;;;3.97;65.76
46714;BME280;32445;51.376;10.874;2022-12-07T06:33:40;99063.31;;;3.99;65.63
46714;BME280;32445;51.376;10.874;2022-12-07T06:36:40;99066.75;;;4.02;66.44
46714;BME280;32445;51.376;10.874;2022-12-07T06:39:40;99073.59;;;4.04;65.66
46714;BME280;32445;51.376;10.874;2022-12-07T06:42:41;99060.72;;;4.07;65.99
46714;BME280;32445;51.376;10.874;2022-12-07T06:45:41;99075.25;;;4.08;66.30
46714;BME280;32445;51.376;10.874;2022-12-07T06:48:42;99059.84;;;4.13;66.02
46714;BME280;32445;51.376;10.874;2022-12-07T06:51:43;99059.78;;;4.18;65.95
46714;BME280;32445;51.376;10.874;2022-12-07T06:54:44;99058.94;;;4.17;65.67
46714;BME280;32445;51.376;10.874;2022-12-07T06:57:45;99060.63;;;4.20;66.03
46714;BME280;32445;51.376;10.874;2022-12-07T07:00:47;99065.75;;;4.23;65.44
46714;BME280;32445;51.376;10.874;2022-12-07T07:03:48;99063.19;;;4.24;65.89
46714;BME280;32445;51.376;10.874;2022-12-07T07:06:48;99068.31;;;4.26;65.51
46714;BME280;32445;51.376;10.874;2022-12-07T07:09:49;99068.31;;;4.26;66.06
46714;BME280;32445;51.376;10.874;2022-12-07T07:12:51;99075.13;;;4.25;65.64
46714;BME280;32445;51.376;10.874;2022-12-07T07:15:52;99076.88;;;4.23;65.69
46714;BME280;32445;51.376;10.874;2022-12-07T07:18:52;99077.72;;;4.24;66.09
46714;BME280;32445;51.376;10.874;2022-12-07T07:21:53;99076.88;;;4.25;65.91
46714;BME280;32445;51.376;10.874;2022-12-07T07:24:53;99067.44;;;4.25;66.41
46714;BME280;32445;51.376;10.874;2022-12-07T07:27:53;99063.16;;;4.26;65.89
46714;BME280;32445;51.376;10.874;2022-12-07T07:30:54;99068.28;;;4.27;66.15
46714;BME280;32445;51.376;10.874;2022-12-07T07:33:54;99070.00;;;4.27;66.15
46714;BME280;32445;51.376;10.874;2022-12-07T07:36:54;99070.84;;;4.27;66.07
46714;BME280;32445;51.376;10.874;2022-12-07T07:39:55;99068.28;;;4.27;66.54
46714;BME280;32445;51.376;10.874;2022-12-07T07:42:56;99063.13;;;4.30;65.93
46714;BME280;32445;51.376;10.874;2022-12-07T07:45:56;99073.38;;;4.33;65.71
46714;BME280;32445;51.376;10.874;2022-12-07T07:48:56;99075.09;;;4.35;66.10
46714;BME280;32445;51.376;10.874;2022-12-07T07:51:57;99078.47;;;4.37;65.94
46714;BME280;32445;51.376;10.874;2022-12-07T07:54:57;99079.34;;;4.39;66.10
46714;BME280;32445;51.376;10.874;2022-12-07T07:57:57;99075.03;;;4.41;65.86
46714;BME280;32445;51.376;10.874;2022-12-07T08:01:03;99077.59;;;4.42;66.05
46714;BME280;32445;51.376;10.874;2022-12-07T08:04:04;99072.47;;;4.41;66.19
46714;BME280;32445;51.376;10.874;2022-12-07T08:07:04;99082.75;;;4.41;66.45
46714;BME280;32445;51.376;10.874;2022-12-07T08:10:06;99075.88;;;4.41;66.11
46714;BME280;32445;51.376;10.874;2022-12-07T08:13:06;99081.91;;;4.40;66.26
46714;BME280;32445;51.376;10.874;2022-12-07T08:16:13;99083.56;;;4.41;66.44
46714;BME280;32445;51.376;10.874;2022-12-07T08:19:15;99079.34;;;4.40;65.96
46714;BME280;32445;51.376;10.874;2022-12-07T08:22:15;99081.91;;;4.39;66.40
46714;BME280;32445;51.376;10.874;2022-12-07T08:25:16;99076.75;;;4.42;66.20
46714;BME280;32445;51.376;10.874;2022-12-07T08:28:16;99085.25;;;4.45;66.38
46714;BME280;32445;51.376;10.874;2022-12-07T08:31:18;99074.13;;;4.46;66.19
46714;BME280;32445;51.376;10.874;2022-12-07T08:34:19;99075.00;;;4.48;66.44
46714;BME280;32445;51.376;10.874;2022-12-07T08:37:19;99076.66;;;4.51;66.64
46714;BME280;32445;51.376;10.874;2022-12-07T08:40:19;99082.66;;;4.53;66.10
46714;BME280;32445;51.376;10.874;2022-12-07T08:43:21;99086.91;;;4.56;66.41
46714;BME280;32445;51.376;10.874;2022-12-07T08:49:41;99087.72;;;4.59;66.17
46714;BME280;32445;51.376;10.874;2022-12-07T08:52:43;99090.28;;;4.62;65.92
46714;BME280;32445;51.376;10.874;2022-12-07T08:55:45;99092.81;;;4.65;65.92
46714;BME280;32445;51.376;10.874;2022-12-07T08:58:46;99095.38;;;4.65;65.74
46714;BME280;32445;51.376;10.874;2022-12-07T09:01:47;99098.81;;;4.67;66.07
46714;BME280;32445;51.376;10.874;2022-12-07T09:04:47;99102.22;;;4.68;65.77
46714;BME280;32445;51.376;10.874;2022-12-07T09:07:51;99106.47;;;4.72;65.70
46714;BME280;32445;51.376;10.874;2022-12-07T09:10:53;99107.28;;;4.74;65.75
46714;BME280;32445;51.376;10.874;2022-12-07T09:13:53;99115.03;;;4.76;65.76
46714;BME280;32445;51.376;10.874;2022-12-07T09:16:53;99108.16;;;4.76;65.77
46714;BME280;32445;51.376;10.874;2022-12-07T09:19:54;99102.16;;;4.76;65.47
46714;BME280;32445;51.376;10.874;2022-12-07T09:22:54;99100.38;;;4.81;65.72
46714;BME280;32445;51.376;10.874;2022-12-07T09:25:54;99095.19;;;4.85;65.16
46714;BME280;32445;51.376;10.874;2022-12-07T09:28:55;99090.91;;;4.88;65.12
46714;BME280;32445;51.376;10.874;2022-12-07T09:31:55;99093.47;;;4.88;65.63
46714;BME280;32445;51.376;10.874;2022-12-07T09:34:55;99091.72;;;4.91;65.16
46714;BME280;32445;51.376;10.874;2022-12-07T09:37:56;99091.69;;;4.93;65.55
46714;BME280;32445;51.376;10.874;2022-12-07T09:40:56;99094.28;;;4.93;65.16
46714;BME280;32445;51.376;10.874;2022-12-07T09:44:21;99086.56;;;4.93;65.41
46714;BME280;32445;51.376;10.874;2022-12-07T09:47:23;99095.94;;;4.98;64.94
46714;BME280;32445;51.376;10.874;2022-12-07T09:50:26;99088.22;;;4.97;64.74
46714;BME280;32445;51.376;10.874;2022-12-07T09:53:30;99089.09;;;4.97;64.84
46714;BME280;32445;51.376;10.874;2022-12-07T09:56:31;99086.53;;;4.97;64.95
46714;BME280;32445;51.376;10.874;2022-12-07T09:59:31;99087.41;;;4.95;64.82
46714;BME280;32445;51.376;10.874;2022-12-07T10:05:48;99083.94;;;4.99;64.17
46714;BME280;32445;51.376;10.874;2022-12-07T10:08:49;99070.19;;;5.00;63.77
46714;BME280;32445;51.376;10.874;2022-12-07T10:12:11;99070.22;;;4.98;63.66
46714;BME280;32445;51.376;10.874;2022-12-07T10:15:11;99067.63;;;5.01;63.12
46714;BME280;32445;51.376;10.874;2022-12-07T10:18:38;99069.34;;;5.01;62.62
46714;BME280;32445;51.376;10.874;2022-12-07T10:25:09;99069.22;;;5.12;62.91
46714;BME280;32445;51.376;10.874;2022-12-07T10:28:18;99064.91;;;5.14;62.18
46714;BME280;32445;51.376;10.874;2022-12-07T10:31:21;99063.19;;;5.16;62.59
46714;BME280;32445;51.376;10.874;2022-12-07T10:34:27;99054.50;;;5.25;62.56
46714;BME280;32445;51.376;10.874;2022-12-07T10:37:28;99069.91;;;5.28;62.82
46714;BME280;32445;51.376;10.874;2022-12-07T10:43:31;99068.13;;;5.34;62.95
46714;BME280;32445;51.376;10.874;2022-12-07T10:46:44;99064.59;;;5.42;62.80
46714;BME280;32445;51.376;10.874;2022-12-07T10:53:42;99061.84;;;5.54;62.91
46714;BME280;32445;51.376;10.874;2022-12-07T10:57:19;99054.13;;;5.54;62.18
46714;BME280;32445;51.376;10.874;2022-12-07T11:00:25;99055.00;;;5.54;62.59
46714;BME280;32445;51.376;10.874;2022-12-07T11:03:34;99048.03;;;5.61;62.60
46714;BME280;32445;51.376;10.874;2022-12-07T11:07:12;99048.00;;;5.63;62.17
46714;BME280;32445;51.376;10.874;2022-12-07T11:10:22;99042.78;;;5.70;61.94
46714;BME280;32445;51.376;10.874;2022-12-07T11:13:39;99047.06;;;5.70;61.74
46714;BME280;32445;51.376;10.874;2022-12-07T11:23:34;99057.38;;;5.68;61.48
46714;BME280;32445;51.376;10.874;2022-12-07T11:30:31;99046.22;;;5.68;61.66
46714;BME280;32445;51.376;10.874;2022-12-07T11:33:47;99047.06;;;5.68;61.44
46714;BME280;32445;51.376;10.874;2022-12-07T11:36:50;99041.94;;;5.67;61.40
46714;BME280;32445;51.376;10.874;2022-12-07T11:40:00;99038.53;;;5.66;61.59
46714;BME280;32445;51.376;10.874;2022-12-07T11:46:54;99059.97;;;5.67;61.61
46714;BME280;32445;51.376;10.874;2022-12-07T11:50:03;99054.81;;;5.67;61.78
46714;BME280;32445;51.376;10.874;2022-12-07T11:59:31;99046.31;;;5.63;62.14
46714;BME280;32445;51.376;10.874;2022-12-07T12:02:46;99047.97;;;5.67;62.39
46714;BME280;32445;51.376;10.874;2022-12-07T12:05:48;99049.59;;;5.73;61.80
46714;BME280;32445;51.376;10.874;2022-12-07T12:09:06;99036.72;;;5.75;62.27
46714;BME280;32445;51.376;10.874;2022-12-07T12:18:51;99026.28;;;5.82;61.84
46714;BME280;32445;51.376;10.874;2022-12-07T12:22:10;99032.25;;;5.87;61.44
46714;BME280;32445;51.376;10.874;2022-12-07T12:25:56;99032.25;;;5.87;61.68
46714;BME280;32445;51.376;10.874;2022-12-07T12:29:01;99025.31;;;5.89;61.52
46714;BME280;32445;51.376;10.874;2022-12-07T12:32:17;99019.25;;;5.94;61.72
46714;BME280;32445;51.376;10.874;2022-12-07T12:35:20;99017.44;;;6.02;61.88
46714;BME280;32445;51.376;10.874;2022-12-07T12:44:39;99015.78;;;5.98;59.93
46714;BME280;32445;51.376;10.874;2022-12-07T12:47:59;99010.66;;;5.98;59.91
46714;BME280;32445;51.376;10.874;2022-12-07T12:54:30;99002.03;;;5.96;59.47
46714;BME280;32445;51.376;10.874;2022-12-07T12:57:33;98996.03;;;5.97;59.35
46714;BME280;32445;51.376;10.874;2022-12-07T13:00:34;99009.78;;;5.97;58.81
46714;BME280;32445;51.376;10.874;2022-12-07T13:03:34;98991.78;;;5.93;58.37
46714;BME280;32445;51.376;10.874;2022-12-07T13:06:36;98995.22;;;5.95;58.88
46714;BME280;32445;51.376;10.874;2022-12-07T13:09:42;98987.50;;;5.93;58.59
46714;BME280;32445;51.376;10.874;2022-12-07T13:13:36;98996.97;;;5.91;58.59
46714;BME280;32445;51.376;10.874;2022-12-07T13:22:43;99000.34;;;5.98;58.59
46714;BME280;32445;51.376;10.874;2022-12-07T13:32:26;99001.19;;;5.98;58.22
46714;BME280;32445;51.376;10.874;2022-12-07T13:35:35;98991.72;;;5.99;58.15
46714;BME280;32445;51.376;10.874;2022-12-07T13:38:38;98980.50;;;6.01;57.98
46714;BME280;32445;51.376;10.874;2022-12-07T13:41:41;98980.59;;;5.95;57.96
46714;BME280;32445;51.376;10.874;2022-12-07T13:44:42;98979.69;;;5.99;58.38
46714;BME280;32445;51.376;10.874;2022-12-07T13:47:51;98986.50;;;6.03;58.09
46714;BME280;32445;51.376;10.874;2022-12-07T13:50:55;98987.28;;;6.07;58.07
46714;BME280;32445;51.376;10.874;2022-12-07T13:54:01;98989.13;;;6.02;58.08
46714;BME280;32445;51.376;10.874;2022-12-07T13:57:09;98984.78;;;6.02;57.77
46714;BME280;32445;51.376;10.874;2022-12-07T14:00:20;98989.13;;;6.02;57.43
46714;BME280;32445;51.376;10.874;2022-12-07T14:03:23;98995.22;;;5.95;57.02
46714;BME280;32445;51.376;10.874;2022-12-07T14:06:26;98996.91;;;5.94;57.69
46714;BME280;32445;51.376;10.874;2022-12-07T14:09:29;98984.00;;;5.96;57.75
46714;BME280;32445;51.376;10.874;2022-12-07T14:12:30;98988.28;;;6.00;57.88
46714;BME280;32445;51.376;10.874;2022-12-07T14:15:34;98983.13;;;5.98;58.24
46714;BME280;32445;51.376;10.874;2022-12-07T14:21:35;98977.97;;;5.97;57.91
46714;BME280;32445;51.376;10.874;2022-12-07T14:24:42;98973.72;;;5.94;57.78
46714;BME280;32445;51.376;10.874;2022-12-07T14:27:57;98978.84;;;5.96;58.08
46714;BME280;32445;51.376;10.874;2022-12-07T14:30:59;98976.28;;;5.96;57.85
46714;BME280;32445;51.376;10.874;2022-12-07T14:34:00;98975.44;;;5.95;57.64
46714;BME280;32445;51.376;10.874;2022-12-07T14:37:00;98973.72;;;5.94;58.08
46714;BME280;32445;51.376;10.874;2022-12-07T14:40:00;98971.13;;;5.97;57.93
46714;BME280;32445;51.376;10.874;2022-12-07T14:43:05;98976.25;;;5.99;57.92
46714;BME280;32445;51.376;10.874;2022-12-07T14:46:06;98977.13;;;5.99;57.77
46714;BME280;32445;51.376;10.874;2022-12-07T14:49:07;98970.31;;;5.94;58.25
46714;BME280;32445;51.376;10.874;2022-12-07T14:52:14;98978.94;;;5.91;58.20
46714;BME280;32445;51.376;10.874;2022-12-07T14:55:28;98972.03;;;5.92;58.06
46714;BME280;32445;51.376;10.874;2022-12-07T14:58:28;98981.56;;;5.88;58.26
46714;BME280;32445;51.376;10.874;2022-12-07T15:01:29;98972.06;;;5.90;57.67
46714;BME280;32445;51.376;10.874;2022-12-07T15:04:29;98972.03;;;5.92;58.00
46714;BME280;32445;51.376;10.874;2022-12-07T15:07:29;98973.69;;;5.96;58.17
46714;BME280;32445;51.376;10.874;2022-12-07T15:10:32;98975.50;;;5.92;57.76
46714;BME280;32445;51.376;10.874;2022-12-07T15:13:33;98973.72;;;5.94;57.76
46714;BME280;32445;51.376;10.874;2022-12-07T15:16:52;98972.09;;;5.88;57.91
46714;BME280;32445;51.376;10.874;2022-12-07T15:19:52;98979.91;;;5.84;57.60
46714;BME280;32445;51.376;10.874;2022-12-07T15:22:52;98985.91;;;5.83;57.75
46714;BME280;32445;51.376;10.874;2022-12-07T15:25:53;98970.50;;;5.80;57.63
46714;BME280;32445;51.376;10.874;2022-12-07T15:28:53;98967.16;;;5.76;57.30
46714;BME280;32445;51.376;10.874;2022-12-07T15:31:55;98961.13;;;5.76;57.83
46714;BME280;32445;51.376;10.874;2022-12-07T15:34:55;98959.44;;;5.76;57.78
46714;BME280;32445;51.376;10.874;2022-12-07T15:37:56;98956.88;;;5.75;57.83
46714;BME280;32445;51.376;10.874;2022-12-07T15:40:56;98959.50;;;5.70;57.57
46714;BME280;32445;51.376;10.874;2022-12-07T15:43:57;98952.69;;;5.67;57.71
46714;BME280;32445;51.376;10.874;2022-12-07T15:47:16;98953.56;;;5.66;57.83
46714;BME280;32445;51.376;10.874;2022-12-07T15:50:16;98954.44;;;5.65;57.48
46714;BME280;32445;51.376;10.874;2022-12-07T15:53:17;98953.53;;;5.68;57.77
46714;BME280;32445;51.376;10.874;2022-12-07T15:56:17;98951.84;;;5.65;57.45
46714;BME280;32445;51.376;10.874;2022-12-07T15:59:18;98956.22;;;5.59;57.37
46714;BME280;32445;51.376;10.874;2022-12-07T16:02:18;98952.03;;;5.51;57.47
46714;BME280;32445;51.376;10.874;2022-12-07T16:05:19;98950.31;;;5.53;58.03
46714;BME280;32445;51.376;10.874;2022-12-07T16:08:19;98949.41;;;5.58;57.57
46714;BME280;32445;51.376;10.874;2022-12-07T16:11:20;98943.41;;;5.55;57.84
46714;BME280;32445;51.376;10.874;2022-12-07T16:14:21;98940.84;;;5.54;57.52
46714;BME280;32445;51.376;10.874;2022-12-07T16:17:21;98940.84;;;5.54;57.80
46714;BME280;32445;51.376;10.874;2022-12-07T16:20:21;98951.19;;;5.51;57.80
46714;BME280;32445;51.376;10.874;2022-12-07T16:23:22;98956.31;;;5.52;57.78
46714;BME280;32445;51.376;10.874;2022-12-07T16:26:22;98954.63;;;5.51;57.72
46714;BME280;32445;51.376;10.874;2022-12-07T16:29:23;98956.34;;;5.51;57.71
46714;BME280;32445;51.376;10.874;2022-12-07T16:32:23;98960.66;;;5.50;57.73
46714;BME280;32445;51.376;10.874;2022-12-07T16:35:23;98967.53;;;5.48;58.13
46714;BME280;32445;51.376;10.874;2022-12-07T16:38:24;98962.41;;;5.47;57.66
46714;BME280;32445;51.376;10.874;2022-12-07T16:41:24;98964.16;;;5.46;57.94
46714;BME280;32445;51.376;10.874;2022-12-07T16:44:25;98964.19;;;5.43;57.56
46714;BME280;32445;51.376;10.874;2022-12-07T16:47:25;98962.47;;;5.42;58.50
46714;BME280;32445;51.376;10.874;2022-12-07T16:50:25;98960.72;;;5.44;58.48
46714;BME280;32445;51.376;10.874;2022-12-07T16:53:26;98956.41;;;5.46;58.29
46714;BME280;32445;51.376;10.874;2022-12-07T16:56:27;98959.78;;;5.50;58.06
46714;BME280;32445;51.376;10.874;2022-12-07T16:59:29;98960.69;;;5.49;58.15
46714;BME280;32445;51.376;10.874;2022-12-07T17:02:29;98967.50;;;5.50;58.08
46714;BME280;32445;51.376;10.874;2022-12-07T17:05:29;98967.50;;;5.51;58.36
46714;BME280;32445;51.376;10.874;2022-12-07T17:08:30;98960.69;;;5.46;58.63
46714;BME280;32445;51.376;10.874;2022-12-07T17:11:30;98957.31;;;5.44;58.64
46714;BME280;32445;51.376;10.874;2022-12-07T17:14:31;98945.28;;;5.44;58.08
46714;BME280;32445;51.376;10.874;2022-12-07T17:17:55;98949.56;;;5.45;58.52
46714;BME280;32445;51.376;10.874;2022-12-07T17:21:01;98948.63;;;5.51;58.36
46714;BME280;32445;51.376;10.874;2022-12-07T17:24:04;98940.84;;;5.54;58.31
46714;BME280;32445;51.376;10.874;2022-12-07T17:27:04;98950.31;;;5.53;58.52
46714;BME280;32445;51.376;10.874;2022-12-07T17:30:06;98952.03;;;5.51;58.45
46714;BME280;32445;51.376;10.874;2022-12-07T17:33:07;98947.81;;;5.49;58.24
46714;BME280;32445;51.376;10.874;2022-12-07T17:36:12;98936.72;;;5.44;58.44
46714;BME280;32445;51.376;10.874;2022-12-07T17:39:15;98939.31;;;5.42;58.58
46714;BME280;32445;51.376;10.874;2022-12-07T17:42:15;98934.19;;;5.41;58.50
46714;BME280;32445;51.376;10.874;2022-12-07T17:45:36;98934.16;;;5.44;58.29
46714;BME280;32445;51.376;10.874;2022-12-07T17:48:36;98933.28;;;5.45;58.58